createdAt,value
2018-03-14T00:00:19.079Z,4.7
2018-03-14T00:02:19.223Z,4.5
2018-03-14T00:04:19.013Z,4.1
2018-03-14T00:06:19.180Z,4.2
2018-03-14T00:08:18.961Z,4.7
2018-03-14T00:10:19.078Z,4.4
2018-03-14T00:12:18.898Z,4
2018-03-14T00:14:18.681Z,2.9
2018-03-14T00:16:18.892Z,3.7
2018-03-14T00:18:18.751Z,3.4
2018-03-14T00:20:18.585Z,4.5
2018-03-14T00:22:19.371Z,3.6
2018-03-14T00:24:19.189Z,3.2
2018-03-14T00:26:18.959Z,3
2018-03-14T00:28:18.751Z,3.8
2018-03-14T00:30:18.532Z,3.2
2018-03-14T00:32:19.341Z,3.3
2018-03-14T00:34:19.129Z,3.6
2018-03-14T00:36:19.449Z,3
2018-03-14T00:38:19.283Z,2.5
2018-03-14T00:40:18.623Z,2.7
2018-03-14T00:42:19.420Z,3.1
2018-03-14T00:44:19.234Z,2.8
2018-03-14T00:46:19.031Z,2.5
2018-03-14T00:48:18.841Z,3.3
2018-03-14T00:50:18.639Z,2.7
2018-03-14T00:52:19.382Z,2.7
2018-03-14T00:54:19.152Z,2.9
2018-03-14T00:56:18.827Z,2.8
2018-03-14T00:58:18.614Z,2.7
2018-03-14T01:00:19.453Z,2.9
2018-03-14T01:02:19.234Z,2.6
2018-03-14T01:04:19.396Z,2.5
2018-03-14T01:06:19.015Z,2.9
2018-03-14T01:08:18.790Z,2.3
2018-03-14T01:10:19.063Z,2
2018-03-14T01:12:19.087Z,2.3
2018-03-14T01:14:18.915Z,2.2
2018-03-14T01:16:18.629Z,2.6
2018-03-14T01:18:18.533Z,2.5
2018-03-14T01:20:19.223Z,2.7
2018-03-14T01:22:19.035Z,2.1
2018-03-14T01:24:18.850Z,2.2
2018-03-14T01:26:18.965Z,2.6
2018-03-14T01:28:19.291Z,2.5
2018-03-14T01:30:19.084Z,2.7
2018-03-14T01:32:18.898Z,2.3
2018-03-14T01:34:18.701Z,1.8
2018-03-14T01:36:19.448Z,3.1
2018-03-14T01:38:19.231Z,1.4
2018-03-14T01:40:19.575Z,1.9
2018-03-14T01:42:19.381Z,1.6
2018-03-14T01:44:19.189Z,1.9
2018-03-14T01:46:18.898Z,1.6
2018-03-14T01:48:18.683Z,2.4
2018-03-14T01:50:19.470Z,1.5
2018-03-14T01:52:18.950Z,1.4
2018-03-14T01:54:18.766Z,1.6
2018-03-14T01:56:19.033Z,1.4
2018-03-14T01:58:18.858Z,1.6
2018-03-14T02:00:18.709Z,1.8
2018-03-14T02:02:18.500Z,1.6
2018-03-14T02:04:19.332Z,1.5
2018-03-14T02:06:18.575Z,1.4
2018-03-14T02:08:19.365Z,1.5
2018-03-14T02:10:18.678Z,1.7
2018-03-14T02:12:19.439Z,1.7
2018-03-14T02:14:18.529Z,1.9
2018-03-14T02:16:18.718Z,1.8
2018-03-14T02:18:18.571Z,2.4
2018-03-14T02:20:19.370Z,2.6
2018-03-14T02:22:18.907Z,2.1
2018-03-14T02:24:18.727Z,2
2018-03-14T02:26:18.971Z,2.1
2018-03-14T02:28:18.790Z,1.9
2018-03-14T02:30:18.610Z,2.1
2018-03-14T02:32:19.348Z,2.6
2018-03-14T02:34:19.140Z,2.1
2018-03-14T02:36:18.778Z,2.3
2018-03-14T02:38:18.561Z,2.3
2018-03-14T02:40:18.840Z,2.2
2018-03-14T02:42:18.626Z,2.1
2018-03-14T02:44:19.376Z,3.1
2018-03-14T02:46:18.536Z,2.3
2018-03-14T02:48:19.319Z,2.8
2018-03-14T02:50:19.103Z,2.6
2018-03-14T02:52:18.871Z,2.5
2018-03-14T02:54:18.648Z,2.7
2018-03-14T02:56:18.711Z,2.6
2018-03-14T02:58:19.462Z,2.7
2018-03-14T03:00:19.241Z,2.9
2018-03-14T03:02:19.039Z,3
2018-03-14T03:04:18.789Z,2.4
2018-03-14T03:06:18.940Z,2.7
2018-03-14T03:08:18.712Z,2.1
2018-03-14T03:10:18.948Z,2.7
2018-03-14T03:12:18.698Z,2.6
2018-03-14T03:14:19.457Z,2.5
2018-03-14T03:16:18.962Z,2.3
2018-03-14T03:18:18.802Z,2.6
2018-03-14T03:20:18.574Z,2.7
2018-03-14T03:22:19.318Z,2.8
2018-03-14T03:24:19.077Z,2.3
2018-03-14T03:26:19.198Z,2.8
2018-03-14T03:28:18.971Z,2.2
2018-03-14T03:30:18.740Z,1.8
2018-03-14T03:32:18.500Z,2.4
2018-03-14T03:34:19.270Z,2.6
2018-03-14T03:36:18.927Z,2.3
2018-03-14T03:38:18.697Z,2.3
2018-03-14T03:40:18.972Z,2.8
2018-03-14T03:42:18.749Z,2.4
2018-03-14T03:44:18.501Z,1.8
2018-03-14T03:46:18.594Z,2.3
2018-03-14T03:48:19.366Z,2.8
2018-03-14T03:50:19.160Z,2.6
2018-03-14T03:52:18.924Z,1.6
2018-03-14T03:54:18.699Z,1.6
2018-03-14T03:56:18.752Z,1.7
2018-03-14T03:58:18.515Z,1.5
2018-03-14T04:00:19.298Z,2.1
2018-03-14T04:02:19.066Z,1.4
2018-03-14T04:04:18.848Z,1.5
2018-03-14T04:06:19.496Z,1
2018-03-14T04:08:19.285Z,1.9
2018-03-14T04:10:18.540Z,1.5
2018-03-14T04:12:19.305Z,1.3
2018-03-14T04:14:19.091Z,1.6
2018-03-14T04:16:18.653Z,1.5
2018-03-14T04:18:18.515Z,1
2018-03-14T04:20:19.311Z,1
2018-03-14T04:22:19.107Z,1
2018-03-14T04:24:18.870Z,0.7
2018-03-14T04:26:18.900Z,0.6
2018-03-14T04:28:18.661Z,0.7
2018-03-14T04:30:19.441Z,0.6
2018-03-14T04:32:19.205Z,0.8
2018-03-14T04:34:18.994Z,0.9
2018-03-14T04:36:19.054Z,1.3
2018-03-14T04:38:18.820Z,1.1
2018-03-14T04:40:19.044Z,0.7
2018-03-14T04:42:18.798Z,0.6
2018-03-14T04:44:18.561Z,1
2018-03-14T04:46:19.168Z,1.3
2018-03-14T04:48:18.982Z,1.5
2018-03-14T04:50:18.747Z,0.6
2018-03-14T04:52:18.524Z,1.3
2018-03-14T04:54:19.271Z,0.7
2018-03-14T04:56:18.852Z,1.1
2018-03-14T04:58:18.623Z,1
2018-03-14T05:00:19.453Z,0.9
2018-03-14T05:02:19.293Z,1.4
2018-03-14T05:04:19.071Z,1
2018-03-14T05:06:18.594Z,1.1
2018-03-14T05:08:19.344Z,0.9
2018-03-14T05:10:18.606Z,1.1
2018-03-14T05:12:19.379Z,1.2
2018-03-14T05:14:19.150Z,1
2018-03-14T05:16:18.729Z,1
2018-03-14T05:18:18.557Z,1.2
2018-03-14T05:20:19.291Z,1.1
2018-03-14T05:22:19.058Z,0.9
2018-03-14T05:24:18.821Z,1.2
2018-03-14T05:26:18.492Z,1.5
2018-03-14T05:28:19.252Z,1.4
2018-03-14T05:30:19.056Z,1.9
2018-03-14T05:32:18.840Z,1.4
2018-03-14T05:34:18.592Z,1.9
2018-03-14T05:36:19.164Z,2
2018-03-14T05:38:18.911Z,1.8
2018-03-14T05:40:19.158Z,2
2018-03-14T05:42:18.946Z,1.2
2018-03-14T05:44:18.719Z,1.6
2018-03-14T05:46:18.642Z,2
2018-03-14T05:48:19.400Z,2
2018-03-14T05:50:19.162Z,2.2
2018-03-14T05:52:18.938Z,2.3
2018-03-14T05:54:18.701Z,2
2018-03-14T05:56:19.288Z,19.8
2018-03-14T05:58:19.066Z,2.3
2018-03-14T06:00:18.852Z,2.6
2018-03-14T06:02:18.602Z,2.4
2018-03-14T06:04:19.363Z,2.3
2018-03-14T06:06:18.923Z,2.2
2018-03-14T06:08:18.686Z,2.3
2018-03-14T06:10:18.939Z,2.2
2018-03-14T06:12:18.694Z,2.4
2018-03-14T06:14:19.486Z,3
2018-03-14T06:16:19.163Z,2.7
2018-03-14T06:18:19.008Z,2.5
2018-03-14T06:20:18.785Z,2.2
2018-03-14T06:22:18.535Z,3.4
2018-03-14T06:24:19.317Z,2.8
2018-03-14T06:26:18.639Z,2.8
2018-03-14T06:28:19.402Z,2.8
2018-03-14T06:30:19.223Z,3.2
2018-03-14T06:32:18.971Z,2.4
2018-03-14T06:34:18.749Z,3.4
2018-03-14T06:36:19.299Z,2.9
2018-03-14T06:38:19.067Z,2.8
2018-03-14T06:40:19.324Z,3.4
2018-03-14T06:42:19.088Z,3
2018-03-14T06:44:18.835Z,3.6
2018-03-14T06:46:19.431Z,2.6
2018-03-14T06:48:19.248Z,3
2018-03-14T06:50:19.025Z,2.9
2018-03-14T06:52:18.803Z,3
2018-03-14T06:54:18.605Z,2.6
2018-03-14T06:56:19.183Z,3
2018-03-14T06:58:18.945Z,2.6
2018-03-14T07:00:18.704Z,3.4
2018-03-14T07:02:18.483Z,2.8
2018-03-14T07:04:19.256Z,3.1
2018-03-14T07:06:19.408Z,3.3
2018-03-14T07:08:19.202Z,3.1
2018-03-14T07:10:19.682Z,3.1
2018-03-14T07:12:19.448Z,3.6
2018-03-14T07:14:19.194Z,2.6
2018-03-14T07:16:18.755Z,2.6
2018-03-14T07:18:18.591Z,2.6
2018-03-14T07:20:19.376Z,2.7
2018-03-14T07:22:19.149Z,3.5
2018-03-14T07:24:18.903Z,3.1
2018-03-14T07:26:19.446Z,2.6
2018-03-14T07:28:19.219Z,2.9
2018-03-14T07:30:19.029Z,3.7
2018-03-14T07:32:18.816Z,2.9
2018-03-14T07:34:18.589Z,2.3
2018-03-14T07:36:19.167Z,3
2018-03-14T07:38:18.956Z,3.9
2018-03-14T07:40:19.346Z,2.3
2018-03-14T07:42:19.129Z,3.2
2018-03-14T07:44:18.900Z,2.8
2018-03-14T07:46:19.224Z,2.8
2018-03-14T07:48:18.973Z,3.3
2018-03-14T07:50:18.723Z,3.5
2018-03-14T07:52:19.471Z,3.2
2018-03-14T07:54:19.246Z,2.9
2018-03-14T07:56:19.322Z,2.4
2018-03-14T07:58:19.093Z,2.3
2018-03-14T08:00:18.878Z,3.2
2018-03-14T08:02:18.660Z,2.6
2018-03-14T08:04:19.436Z,3
2018-03-14T08:06:18.658Z,3
2018-03-14T08:08:19.419Z,3.1
2018-03-14T08:10:18.702Z,2.4
2018-03-14T08:12:19.453Z,3.8
2018-03-14T08:14:19.241Z,2.9
2018-03-14T08:16:18.781Z,2.8
2018-03-14T08:18:18.641Z,2.8
2018-03-14T08:20:19.476Z,2.4
2018-03-14T08:22:19.283Z,2.4
2018-03-14T08:24:19.060Z,2.4
2018-03-14T08:26:18.620Z,2.8
2018-03-14T08:28:19.397Z,3.9
2018-03-14T08:30:19.157Z,3.1
2018-03-14T08:32:18.926Z,2.8
2018-03-14T08:34:18.703Z,2.6
2018-03-14T08:36:19.288Z,3.1
2018-03-14T08:38:19.032Z,3.1
2018-03-14T08:40:19.291Z,2.7
2018-03-14T08:42:19.073Z,2.8
2018-03-14T08:44:18.824Z,3.6
2018-03-14T08:46:19.464Z,2.7
2018-03-14T08:48:19.247Z,3.4
2018-03-14T08:50:19.069Z,2.2
2018-03-14T08:52:18.836Z,3
2018-03-14T08:54:18.710Z,3.1
2018-03-14T08:56:19.373Z,2.4
2018-03-14T08:58:19.143Z,2.1
2018-03-14T09:00:18.930Z,2.5
2018-03-14T09:02:18.676Z,2.1
2018-03-14T09:04:19.445Z,3.1
2018-03-14T09:06:19.097Z,3.4
2018-03-14T09:08:18.895Z,3.6
2018-03-14T09:10:19.228Z,3.4
2018-03-14T09:12:19.036Z,3.4
2018-03-14T09:14:18.817Z,2.8
2018-03-14T09:16:18.883Z,3
2018-03-14T09:18:18.741Z,2.9
2018-03-14T09:20:18.666Z,3.4
2018-03-14T09:22:19.428Z,3.3
2018-03-14T09:24:19.237Z,2.9
2018-03-14T09:26:18.876Z,2.7
2018-03-14T09:28:18.661Z,3.4
2018-03-14T09:30:19.448Z,3.9
2018-03-14T09:32:19.218Z,3.3
2018-03-14T09:34:18.983Z,3.4
2018-03-14T09:36:18.553Z,3.5
2018-03-14T09:38:19.321Z,3.4
2018-03-14T09:40:18.743Z,3.6
2018-03-14T09:42:18.518Z,3.6
2018-03-14T09:44:19.309Z,4.5
2018-03-14T09:46:19.381Z,4
2018-03-14T09:48:19.149Z,3.7
2018-03-14T09:50:18.938Z,4.4
2018-03-14T09:52:18.747Z,3.9
2018-03-14T09:54:18.514Z,4
2018-03-14T09:56:18.916Z,3.9
2018-03-14T09:58:18.680Z,4.1
2018-03-14T10:00:19.448Z,3.3
2018-03-14T10:02:19.240Z,3.6
2018-03-14T10:04:19.017Z,4.6
2018-03-14T10:06:19.168Z,4.8
2018-03-14T10:08:18.913Z,4.5
2018-03-14T10:10:19.141Z,3.9
2018-03-14T10:12:18.689Z,4.2
2018-03-14T10:14:19.443Z,4.1
2018-03-14T10:16:19.142Z,4
2018-03-14T10:18:19.010Z,3.6
2018-03-14T10:20:18.792Z,3.8
2018-03-14T10:22:18.617Z,4.2
2018-03-14T10:24:19.442Z,4
2018-03-14T10:26:19.092Z,4
2018-03-14T10:28:18.866Z,4.1
2018-03-14T10:30:18.642Z,4.5
2018-03-14T10:32:19.408Z,3.8
2018-03-14T10:34:19.168Z,3.8
2018-03-14T10:36:19.223Z,4.4
2018-03-14T10:38:18.992Z,3.5
2018-03-14T10:40:19.344Z,4.4
2018-03-14T10:42:19.131Z,3.3
2018-03-14T10:44:18.895Z,4.3
2018-03-14T10:46:19.004Z,3.2
2018-03-14T10:48:18.781Z,3.3
2018-03-14T10:50:18.547Z,4
2018-03-14T10:52:19.323Z,4.6
2018-03-14T10:54:19.209Z,3.7
2018-03-14T10:56:19.384Z,3.9
2018-03-14T10:58:19.169Z,2.9
2018-03-14T11:00:18.943Z,3.3
2018-03-14T11:02:18.721Z,3.1
2018-03-14T11:04:19.488Z,3.4
2018-03-14T11:06:18.609Z,3.1
2018-03-14T11:08:19.409Z,3.1
2018-03-14T11:10:18.673Z,2.7
2018-03-14T11:12:19.424Z,3.4
2018-03-14T11:14:19.199Z,2.6
2018-03-14T11:16:19.391Z,2.9
2018-03-14T11:18:19.259Z,2.8
2018-03-14T11:20:19.050Z,2.6
2018-03-14T11:22:18.877Z,3.7
2018-03-14T11:24:18.654Z,2.9
2018-03-14T11:26:19.345Z,3.4
2018-03-14T11:28:19.130Z,3.6
2018-03-14T11:30:18.968Z,2
2018-03-14T11:32:18.733Z,2.5
2018-03-14T11:34:18.509Z,3.2
2018-03-14T11:36:18.691Z,2.9
2018-03-14T11:38:19.501Z,2.7
2018-03-14T11:40:18.807Z,2.3
2018-03-14T11:42:18.578Z,2.7
2018-03-14T11:44:19.359Z,3.2
2018-03-14T11:46:18.509Z,2.6
2018-03-14T11:48:19.283Z,3
2018-03-14T11:50:19.070Z,3.2
2018-03-14T11:52:18.842Z,3.9
2018-03-14T11:54:18.606Z,4
2018-03-14T11:56:19.142Z,3.4
2018-03-14T11:58:18.939Z,4.8
2018-03-14T12:00:18.696Z,5
2018-03-14T12:02:19.466Z,4.7
2018-03-14T12:04:19.242Z,5.1
2018-03-14T12:06:18.772Z,4.5
2018-03-14T12:08:18.539Z,5.2
2018-03-14T12:10:18.892Z,5.2
2018-03-14T12:12:18.728Z,6.1
2018-03-14T12:14:18.535Z,5.6
2018-03-14T12:16:18.763Z,5.8
2018-03-14T12:18:18.629Z,5.7
2018-03-14T12:20:19.397Z,5.1
2018-03-14T12:22:19.147Z,4.7
2018-03-14T12:24:18.922Z,6.2
2018-03-14T12:26:18.602Z,4.8
2018-03-14T12:28:19.478Z,4.8
2018-03-14T12:30:19.376Z,4.6
2018-03-14T12:32:18.903Z,4.8
2018-03-14T12:34:18.713Z,4.8
2018-03-14T12:36:19.055Z,4.9
2018-03-14T12:38:18.841Z,5.5
2018-03-14T12:40:19.122Z,4.8
2018-03-14T12:42:18.900Z,5.5
2018-03-14T12:44:18.668Z,4.7
2018-03-14T12:46:19.261Z,4
2018-03-14T12:48:19.036Z,4.4
2018-03-14T12:50:18.847Z,5.4
2018-03-14T12:52:18.650Z,5.3
2018-03-14T12:54:19.446Z,5.3
2018-03-14T12:56:18.968Z,4.2
2018-03-14T12:58:18.746Z,5.4
2018-03-14T13:00:18.510Z,5.2
2018-03-14T13:02:19.276Z,4.8
2018-03-14T13:04:19.032Z,5.6
2018-03-14T13:06:18.590Z,5.3
2018-03-14T13:08:19.340Z,5
2018-03-14T13:10:18.546Z,4.3
2018-03-14T13:12:19.321Z,5
2018-03-14T13:14:19.082Z,4.1
2018-03-14T13:16:19.341Z,4.6
2018-03-14T13:18:19.218Z,4.9
2018-03-14T13:20:19.000Z,5.5
2018-03-14T13:22:18.752Z,5.2
2018-03-14T13:24:18.539Z,4.3
2018-03-14T13:26:19.071Z,4.3
2018-03-14T13:28:18.830Z,5
2018-03-14T13:30:18.630Z,4.4
2018-03-14T13:32:19.433Z,4.5
2018-03-14T13:34:19.242Z,5.7
2018-03-14T13:36:19.353Z,5.6
2018-03-14T13:38:19.136Z,5.4
2018-03-14T13:40:19.418Z,6.1
2018-03-14T13:42:19.198Z,5.6
2018-03-14T13:44:18.986Z,5.2
2018-03-14T13:46:18.765Z,5.1
2018-03-14T13:48:18.517Z,5.9
2018-03-14T13:50:19.289Z,4.7
2018-03-14T13:52:19.064Z,5.4
2018-03-14T13:54:18.841Z,5.3
2018-03-14T13:56:19.492Z,6
2018-03-14T13:58:19.302Z,5.6
2018-03-14T14:00:19.118Z,5.3
2018-03-14T14:02:18.876Z,5.2
2018-03-14T14:04:18.661Z,5.2
2018-03-14T14:06:19.232Z,5.1
2018-03-14T14:08:18.995Z,5.3
2018-03-14T14:10:19.292Z,5
2018-03-14T14:12:19.074Z,4.9
2018-03-14T14:14:18.842Z,4.9
2018-03-14T14:16:19.402Z,5.1
2018-03-14T14:18:19.252Z,4.6
2018-03-14T14:20:19.028Z,4.7
2018-03-14T14:22:18.817Z,3.9
2018-03-14T14:24:18.586Z,5.3
2018-03-14T14:26:18.710Z,5.6
2018-03-14T14:28:19.469Z,4.2
2018-03-14T14:30:19.240Z,4.6
2018-03-14T14:32:19.002Z,3.6
2018-03-14T14:34:18.780Z,3.2
2018-03-14T14:36:18.966Z,3
2018-03-14T14:38:18.737Z,4.4
2018-03-14T14:40:18.982Z,3.4
2018-03-14T14:42:18.748Z,3.6
2018-03-14T14:44:18.524Z,4.2
2018-03-14T14:46:19.243Z,2.5
2018-03-14T14:48:19.014Z,2.9
2018-03-14T14:50:18.833Z,4
2018-03-14T14:52:18.607Z,3.3
2018-03-14T14:54:19.369Z,3.5
2018-03-14T14:56:18.919Z,4.3
2018-03-14T14:58:18.712Z,3.3
2018-03-14T15:00:18.538Z,3.9
2018-03-14T15:02:19.301Z,3.5
2018-03-14T15:04:19.061Z,3.4
2018-03-14T15:06:18.624Z,3.5
2018-03-14T15:08:19.427Z,3.1
2018-03-14T15:10:18.710Z,3.7
2018-03-14T15:12:19.474Z,3
2018-03-14T15:14:19.277Z,3.6
2018-03-14T15:16:18.886Z,3.8
2018-03-14T15:18:18.751Z,3.5
2018-03-14T15:20:18.529Z,3.4
2018-03-14T15:22:19.295Z,3.7
2018-03-14T15:24:19.084Z,3.9
2018-03-14T15:26:19.219Z,4.3
2018-03-14T15:28:19.010Z,3.1
2018-03-14T15:30:18.788Z,3.5
2018-03-14T15:32:18.555Z,4
2018-03-14T15:34:19.351Z,3.8
2018-03-14T15:36:18.918Z,3.3
2018-03-14T15:38:18.681Z,3.9
2018-03-14T15:40:18.971Z,5.4
2018-03-14T15:42:18.720Z,3.9
2018-03-14T15:44:19.483Z,4.5
2018-03-14T15:46:19.295Z,7.3
2018-03-14T15:48:19.088Z,6.3
2018-03-14T15:50:18.876Z,5.6
2018-03-14T15:52:18.648Z,4.8
2018-03-14T15:54:19.422Z,4.2
2018-03-14T15:56:18.556Z,4.5
2018-03-14T15:58:19.324Z,4.5
2018-03-14T16:00:19.104Z,5.8
2018-03-14T16:02:18.907Z,4.5
2018-03-14T16:04:18.686Z,4.9
2018-03-14T16:06:19.270Z,6.8
2018-03-14T16:08:19.047Z,6.3
2018-03-14T16:10:19.338Z,10
2018-03-14T16:12:18.575Z,7.3
2018-03-14T16:14:19.397Z,10.4
2018-03-14T16:16:19.450Z,7.2
2018-03-14T16:18:19.300Z,5.1
2018-03-14T16:20:19.138Z,5.2
2018-03-14T16:22:18.920Z,4.4
2018-03-14T16:24:18.664Z,6.1
2018-03-14T16:26:19.231Z,5.4
2018-03-14T16:28:19.066Z,3.7
2018-03-14T16:30:18.891Z,6.1
2018-03-14T16:32:18.663Z,5.5
2018-03-14T16:34:19.437Z,5.1
2018-03-14T16:36:18.612Z,5.3
2018-03-14T16:38:19.393Z,5.5
2018-03-14T16:40:18.745Z,4.9
2018-03-14T16:42:18.491Z,4.1
2018-03-14T16:44:19.250Z,4.1
2018-03-14T16:46:19.494Z,4
2018-03-14T16:48:19.262Z,4.1
2018-03-14T16:50:19.093Z,3.5
2018-03-14T16:52:18.869Z,3.2
2018-03-14T16:54:18.652Z,3.6
2018-03-14T16:56:19.228Z,3.5
2018-03-14T16:58:19.006Z,3.2
2018-03-14T17:00:18.827Z,3
2018-03-14T17:02:18.888Z,2
2018-03-14T17:04:18.690Z,2.3
2018-03-14T17:06:18.833Z,3.3
2018-03-14T17:08:18.600Z,2.6
2018-03-14T17:10:18.862Z,2.5
2018-03-14T17:12:18.628Z,2
2018-03-14T17:14:27.135Z,2.7
2018-03-14T17:16:18.743Z,2.3
2018-03-14T17:18:18.583Z,2.5
2018-03-14T17:20:19.377Z,2.8
2018-03-14T17:22:19.172Z,2.3
2018-03-14T17:24:18.922Z,2.2
2018-03-14T17:26:18.653Z,2.2
2018-03-14T17:28:19.420Z,2.5
2018-03-14T17:30:19.221Z,2.2
2018-03-14T17:32:19.034Z,2.2
2018-03-14T17:34:18.839Z,1.8
2018-03-14T17:36:18.960Z,2.4
2018-03-14T17:38:18.768Z,2.4
2018-03-14T17:40:19.015Z,2.2
2018-03-14T17:42:18.779Z,2.1
2018-03-14T17:44:18.560Z,1.5
2018-03-14T17:46:19.179Z,1.4
2018-03-14T17:48:19.012Z,2
2018-03-14T17:50:18.870Z,1.8
2018-03-14T17:52:18.647Z,2
2018-03-14T17:54:19.444Z,2.1
2018-03-14T17:56:18.590Z,2.2
2018-03-14T17:58:19.363Z,2.6
2018-03-14T18:00:19.142Z,2.7
2018-03-14T18:02:18.930Z,2.5
2018-03-14T18:04:18.683Z,2.9
2018-03-14T18:06:18.756Z,2.9
2018-03-14T18:08:18.576Z,2.2
2018-03-14T18:10:18.908Z,3.1
2018-03-14T18:12:18.701Z,2.5
2018-03-14T18:14:19.475Z,3.2
2018-03-14T18:16:18.587Z,2.9
2018-03-14T18:18:19.463Z,2.5
2018-03-14T18:20:19.269Z,2.9
2018-03-14T18:22:19.057Z,3.6
2018-03-14T18:24:18.830Z,2.5
2018-03-14T18:26:19.006Z,3.2
2018-03-14T18:28:18.770Z,3
2018-03-14T18:30:18.521Z,2.8
2018-03-14T18:32:19.329Z,2.8
2018-03-14T18:34:19.102Z,2.2
2018-03-14T18:36:18.727Z,3
2018-03-14T18:38:18.506Z,3.2
2018-03-14T18:40:18.836Z,2.4
2018-03-14T18:42:18.621Z,3.1
2018-03-14T18:44:19.435Z,2.9
2018-03-14T18:46:18.596Z,3.4
2018-03-14T18:48:19.361Z,2.4
2018-03-14T18:50:19.124Z,2.6
2018-03-14T18:52:18.896Z,2.4
2018-03-14T18:54:18.713Z,2.6
2018-03-14T18:56:18.877Z,3.4
2018-03-14T18:58:18.634Z,2.7
2018-03-14T19:00:19.435Z,2.7
2018-03-14T19:02:19.214Z,2.7
2018-03-14T19:04:18.969Z,2.7
2018-03-14T19:06:19.144Z,3.9
2018-03-14T19:08:18.930Z,3.2
2018-03-14T19:10:19.225Z,2.3
2018-03-14T19:12:19.037Z,3.5
2018-03-14T19:14:18.803Z,3.2
2018-03-14T19:16:19.408Z,3.8
2018-03-14T19:18:19.283Z,3
2018-03-14T19:20:19.069Z,3.3
2018-03-14T19:22:18.841Z,3.3
2018-03-14T19:24:18.611Z,2.5
2018-03-14T19:26:18.697Z,3.8
2018-03-14T19:28:19.488Z,3.6
2018-03-14T19:30:19.250Z,3.2
2018-03-14T19:32:19.033Z,3.2
2018-03-14T19:34:18.790Z,4.5
2018-03-14T19:36:19.024Z,3.5
2018-03-14T19:38:18.830Z,4.2
2018-03-14T19:40:19.095Z,3.5
2018-03-14T19:42:18.875Z,3.4
2018-03-14T19:44:18.643Z,4.2
2018-03-14T19:46:18.938Z,3
2018-03-14T19:48:18.700Z,3.6
2018-03-14T19:50:19.593Z,4
2018-03-14T19:52:19.379Z,3.9
2018-03-14T19:54:19.171Z,4.5
2018-03-14T19:56:18.734Z,4.6
2018-03-14T19:58:18.541Z,4.2
2018-03-14T20:00:19.295Z,4.5
2018-03-14T20:02:19.080Z,4.6
2018-03-14T20:04:18.869Z,4.5
2018-03-14T20:06:19.070Z,5.7
2018-03-14T20:08:18.838Z,5
2018-03-14T20:10:19.111Z,5.4
2018-03-14T20:12:18.936Z,5.6
2018-03-14T20:14:18.683Z,5.2
2018-03-14T20:16:18.864Z,5.5
2018-03-14T20:18:18.736Z,5.6
2018-03-14T20:20:19.505Z,5
2018-03-14T20:22:19.312Z,4.7
2018-03-14T20:24:19.086Z,5.8
2018-03-14T20:26:19.340Z,6
2018-03-14T20:28:19.129Z,4.8
2018-03-14T20:30:18.976Z,5.6
2018-03-14T20:32:18.741Z,5.6
2018-03-14T20:34:18.512Z,5.5
2018-03-14T20:36:19.058Z,5.5
2018-03-14T20:38:18.824Z,5.3
2018-03-14T20:40:19.057Z,4.7
2018-03-14T20:42:18.616Z,5
2018-03-14T20:44:19.405Z,4.7
2018-03-14T20:46:18.998Z,6.2
2018-03-14T20:48:18.754Z,5.1
2018-03-14T20:50:18.530Z,5.2
2018-03-14T20:52:19.284Z,5.5
2018-03-14T20:54:19.043Z,5.1
2018-03-14T20:56:18.680Z,5.8
2018-03-14T20:58:19.451Z,6.1
2018-03-14T21:00:19.244Z,5
2018-03-14T21:02:19.024Z,5.8
2018-03-14T21:04:18.798Z,5.3
2018-03-14T21:06:19.340Z,6.3
2018-03-14T21:08:19.109Z,3.9
2018-03-14T21:10:19.312Z,4.2
2018-03-14T21:12:19.074Z,3.7
2018-03-14T21:14:18.832Z,3.7
2018-03-14T21:16:19.473Z,3.2
2018-03-14T21:18:19.390Z,4.8
2018-03-14T21:20:19.359Z,4.1
2018-03-14T21:22:19.136Z,4
2018-03-14T21:24:18.930Z,4
2018-03-14T21:26:18.997Z,4.3
2018-03-14T21:28:18.762Z,3.2
2018-03-14T21:30:18.512Z,3.6
2018-03-14T21:32:19.259Z,3.4
2018-03-14T21:34:19.049Z,3.2
2018-03-14T21:36:18.840Z,2.8
2018-03-14T21:38:18.587Z,2.8
2018-03-14T21:40:18.820Z,2.6
2018-03-14T21:42:18.621Z,2.8
2018-03-14T21:44:19.409Z,2.4
2018-03-14T21:46:18.512Z,3
2018-03-14T21:48:19.278Z,2.1
2018-03-14T21:50:19.047Z,3.8
2018-03-14T21:52:18.801Z,2.8
2018-03-14T21:54:18.581Z,2.5
2018-03-14T21:56:19.203Z,2.6
2018-03-14T21:58:18.979Z,3.3
2018-03-14T22:00:18.742Z,2.5
2018-03-14T22:02:18.524Z,3.9
2018-03-14T22:04:19.290Z,3.7
2018-03-14T22:06:19.478Z,3.4
2018-03-14T22:08:19.332Z,2.9
2018-03-14T22:10:18.668Z,3.5
2018-03-14T22:12:19.427Z,3.8
2018-03-14T22:14:19.179Z,3.8
2018-03-14T22:16:19.277Z,3.8
2018-03-14T22:18:19.115Z,3.6
2018-03-14T22:20:18.918Z,3.1
2018-03-14T22:22:18.687Z,3.5
2018-03-14T22:24:19.467Z,5.8
2018-03-14T22:26:19.067Z,4.8
2018-03-14T22:28:18.841Z,5.6
2018-03-14T22:30:18.610Z,6
2018-03-14T22:32:19.372Z,6.7
2018-03-14T22:34:19.155Z,6.7
2018-03-14T22:36:19.264Z,6.4
2018-03-14T22:38:19.020Z,6
2018-03-14T22:40:19.267Z,7
2018-03-14T22:42:19.029Z,6.2
2018-03-14T22:44:18.777Z,6
2018-03-14T22:46:18.927Z,6.9
2018-03-14T22:48:18.730Z,6.9
2018-03-14T22:50:18.581Z,6.2
2018-03-14T22:52:19.360Z,5.1
2018-03-14T22:54:19.145Z,5.8
2018-03-14T22:56:18.784Z,6.2
2018-03-14T22:58:18.539Z,5.3
2018-03-14T23:00:19.321Z,4.6
2018-03-14T23:02:19.126Z,5.5
2018-03-14T23:04:18.907Z,6
2018-03-14T23:06:18.668Z,6.1
2018-03-14T23:08:19.457Z,5.9
2018-03-14T23:10:18.745Z,6.1
2018-03-14T23:12:18.505Z,5
2018-03-14T23:14:19.277Z,5.5
2018-03-14T23:16:19.353Z,5.7
2018-03-14T23:18:19.218Z,5.9
2018-03-14T23:20:18.962Z,5.5
2018-03-14T23:22:18.746Z,5.4
2018-03-14T23:24:18.526Z,6.2
2018-03-14T23:26:19.069Z,5.7
2018-03-14T23:28:18.830Z,5.6
2018-03-14T23:30:18.593Z,5
2018-03-14T23:32:19.352Z,4.6
2018-03-14T23:34:19.130Z,5.4
2018-03-14T23:36:18.699Z,6.1
2018-03-14T23:38:19.458Z,6.2
2018-03-14T23:40:18.685Z,5.2
2018-03-14T23:42:19.450Z,6.1
2018-03-14T23:44:19.216Z,4.8
2018-03-14T23:46:18.775Z,5.6
2018-03-14T23:48:18.557Z,5.2
2018-03-14T23:50:19.294Z,5.5
2018-03-14T23:52:19.058Z,5.6
2018-03-14T23:54:18.812Z,5.4
2018-03-14T23:56:19.420Z,5.2
2018-03-14T23:58:19.216Z,5.4
